createdAt,value
2024-04-18T00:01:19.255Z,5.01
2024-04-18T00:06:23.566Z,5.07
2024-04-18T00:11:27.237Z,5.11
2024-04-18T00:16:31.988Z,5.24
2024-04-18T00:21:52.209Z,5.34
2024-04-18T00:27:02.300Z,5.28
2024-04-18T00:32:13.274Z,5.30
2024-04-18T00:37:38.500Z,5.40
2024-04-18T00:42:42.848Z,5.45
2024-04-18T00:47:50.347Z,5.47
2024-04-18T00:52:53.764Z,5.59
2024-04-18T00:58:05.176Z,5.72
2024-04-18T01:03:17.448Z,5.98
2024-04-18T01:08:21.107Z,6.11
2024-04-18T01:13:40.826Z,6.11
2024-04-18T01:19:01.359Z,5.92
2024-04-18T01:24:05.296Z,5.69
2024-04-18T01:29:08.529Z,5.43
2024-04-18T01:34:13.080Z,5.31
2024-04-18T01:39:16.951Z,5.25
2024-04-18T01:44:21.146Z,5.32
2024-04-18T01:49:45.391Z,5.53
2024-04-18T01:54:48.498Z,5.76
2024-04-18T02:00:07.859Z,6.02
2024-04-18T02:05:14.659Z,6.33
2024-04-18T02:10:20.659Z,6.76
2024-04-18T02:15:36.789Z,6.99
2024-04-18T02:20:49.800Z,7.28
2024-04-18T02:26:00.111Z,7.38
2024-04-18T02:31:05.056Z,7.53
2024-04-18T02:36:26.752Z,7.87
2024-04-18T02:41:51.145Z,8.02
2024-04-18T02:47:03.101Z,8.12
2024-04-18T02:52:07.058Z,8.11
2024-04-18T02:57:20.418Z,8.37
2024-04-18T03:02:29.113Z,8.40
2024-04-18T03:07:51.734Z,8.36
2024-04-18T03:12:55.901Z,8.36
2024-04-18T03:18:19.262Z,9.11
2024-04-18T03:23:32.207Z,9.23
2024-04-18T03:28:38.937Z,9.56
2024-04-18T03:33:44.869Z,9.81
2024-04-18T03:38:48.320Z,9.67
2024-04-18T03:43:51.916Z,9.46
2024-04-18T03:48:57.928Z,9.33
2024-04-18T03:54:02.139Z,9.37
2024-04-18T03:59:25.579Z,9.66
2024-04-18T04:04:31.222Z,9.46
2024-04-18T04:09:34.367Z,9.55
2024-04-18T04:14:37.396Z,9.81
2024-04-18T04:19:42.085Z,10.06
2024-04-18T04:24:45.989Z,10.71
2024-04-18T04:29:59.963Z,11.27
2024-04-18T04:35:03.488Z,11.57
2024-04-18T04:40:07.779Z,12.02
2024-04-18T04:45:12.643Z,12.09
2024-04-18T04:50:15.767Z,11.40
2024-04-18T04:55:18.730Z,10.43
2024-04-18T05:00:23.787Z,10.11
2024-04-18T05:05:33.031Z,10.33
2024-04-18T05:10:46.345Z,10.67
2024-04-18T05:15:54.395Z,10.65
2024-04-18T05:21:07.359Z,10.68
2024-04-18T05:26:34.132Z,10.89
2024-04-18T05:31:41.604Z,11.20
2024-04-18T05:36:47.385Z,11.37
2024-04-18T05:41:52.360Z,11.94
2024-04-18T05:47:09.214Z,12.69
2024-04-18T05:52:12.614Z,13.24
2024-04-18T05:57:18.078Z,13.27
2024-04-18T06:02:28.954Z,12.96
2024-04-18T06:07:32.782Z,12.20
2024-04-18T06:12:36.704Z,11.84
2024-04-18T06:17:42.034Z,11.58
2024-04-18T06:22:45.670Z,11.24
2024-04-18T06:28:01.592Z,11.41
2024-04-18T06:33:07.316Z,12.31
2024-04-18T06:38:10.488Z,13.08
2024-04-18T06:43:14.902Z,13.47
2024-04-18T06:48:18.210Z,14.03
2024-04-18T06:53:21.304Z,14.72
2024-04-18T06:58:25.026Z,15.29
2024-04-18T07:03:30.660Z,14.86
2024-04-18T07:08:33.899Z,14.37
2024-04-18T07:13:41.490Z,14.16
2024-04-18T07:19:04.899Z,14.07
2024-04-18T07:24:28.033Z,14.32
2024-04-18T07:29:31.663Z,14.28
2024-04-18T07:34:36.646Z,14.62
2024-04-18T07:39:45.878Z,14.31
2024-04-18T07:44:48.923Z,14.38
2024-04-18T07:49:52.954Z,13.94
2024-04-18T07:54:56.745Z,14.27
2024-04-18T08:00:00.720Z,14.74
2024-04-18T08:05:17.763Z,15.25
2024-04-18T08:10:24.830Z,15.39
2024-04-18T08:20:58.103Z,15.48
2024-04-18T08:26:01.271Z,15.36
2024-04-18T08:31:06.123Z,15.32
2024-04-18T08:36:09.325Z,15.37
2024-04-18T08:41:14.760Z,15.54
2024-04-18T08:46:19.993Z,15.39
2024-04-18T08:51:23.511Z,15.33
2024-04-18T08:56:27.072Z,15.73
2024-04-18T09:01:31.591Z,15.52
2024-04-18T09:06:35.080Z,15.17
2024-04-18T09:11:39.342Z,14.98
2024-04-18T09:16:45.119Z,15.17
2024-04-18T09:21:48.696Z,15.39
2024-04-18T09:26:52.230Z,15.15
2024-04-18T09:31:59.961Z,15.11
2024-04-18T09:37:07.300Z,14.93
2024-04-18T09:42:29.190Z,14.98
2024-04-18T09:47:34.217Z,15.05
2024-04-18T09:52:39.169Z,14.73
2024-04-18T09:57:44.652Z,14.65
2024-04-18T10:02:52.222Z,14.97
2024-04-18T10:07:59.786Z,15.44
2024-04-18T10:13:06.075Z,15.49
2024-04-18T10:18:22.193Z,15.02
2024-04-18T10:23:29.175Z,14.89
2024-04-18T10:28:36.067Z,14.86
2024-04-18T10:33:44.348Z,14.88
2024-04-18T10:38:49.238Z,14.50
2024-04-18T10:43:52.876Z,14.11
2024-04-18T10:48:59.218Z,14.18
2024-04-18T10:54:02.554Z,14.22
2024-04-18T10:59:09.285Z,14.15
2024-04-18T11:04:13.618Z,14.20
2024-04-18T11:09:18.591Z,14.29
2024-04-18T11:14:23.752Z,14.33
2024-04-18T11:19:28.119Z,14.25
2024-04-18T11:24:31.597Z,14.10
2024-04-18T11:29:35.191Z,14.09
2024-04-18T11:34:40.415Z,13.97
2024-04-18T11:39:43.973Z,13.81
2024-04-18T11:44:47.467Z,13.61
2024-04-18T11:49:52.146Z,13.38
2024-04-18T11:54:55.892Z,13.18
2024-04-18T12:00:13.458Z,12.97
2024-04-18T12:05:35.697Z,12.80
2024-04-18T12:10:40.020Z,12.65
2024-04-18T12:15:43.541Z,12.51
2024-04-18T12:21:06.060Z,12.35
2024-04-18T12:26:13.242Z,12.17
2024-04-18T12:31:22.747Z,12.05
2024-04-18T12:36:28.262Z,11.97
2024-04-18T12:41:52.178Z,11.89
2024-04-18T12:46:55.508Z,11.77
2024-04-18T12:51:59.422Z,11.63
2024-04-18T12:57:03.017Z,11.45
2024-04-18T13:02:07.737Z,11.25
2024-04-18T13:07:15.433Z,11.02
2024-04-18T13:12:39.935Z,10.80
2024-04-18T13:18:03.014Z,10.61
2024-04-18T13:23:06.792Z,10.53
2024-04-18T13:28:11.603Z,10.46
2024-04-18T13:33:16.175Z,10.35
2024-04-18T13:38:19.633Z,10.26
2024-04-18T13:43:31.894Z,10.21
2024-04-18T13:48:44.871Z,10.22
2024-04-18T13:53:47.760Z,10.22
2024-04-18T13:58:57.834Z,10.30
2024-04-18T14:04:04.793Z,10.27
2024-04-18T14:09:16.616Z,10.25
2024-04-18T14:14:19.482Z,10.26
2024-04-18T14:19:41.436Z,10.21
2024-04-18T14:24:44.756Z,10.22
2024-04-18T14:30:08.500Z,10.23
2024-04-18T14:35:12.243Z,10.23
2024-04-18T14:40:15.596Z,10.23
2024-04-18T14:45:20.366Z,10.23
2024-04-18T14:50:23.346Z,10.27
2024-04-18T14:55:40.276Z,10.15
2024-04-18T15:00:54.845Z,9.99
2024-04-18T15:06:00.769Z,9.97
2024-04-18T15:11:15.569Z,9.80
2024-04-18T15:16:37.441Z,9.64
2024-04-18T15:21:40.968Z,9.58
2024-04-18T15:26:47.946Z,9.45
2024-04-18T15:31:52.122Z,9.19
2024-04-18T15:37:13.770Z,8.95
2024-04-18T15:42:34.001Z,8.76
2024-04-18T15:47:39.131Z,8.58
2024-04-18T15:52:57.154Z,8.40
2024-04-18T15:58:05.144Z,8.27
2024-04-18T16:03:19.047Z,8.33
2024-04-18T16:08:29.122Z,8.32
2024-04-18T16:13:32.043Z,8.24
2024-04-18T16:18:54.012Z,8.18
2024-04-18T16:24:09.973Z,8.16
2024-04-18T16:29:13.310Z,8.05
2024-04-18T16:34:18.644Z,7.88
2024-04-18T16:39:32.976Z,7.72
2024-04-18T16:44:37.112Z,7.68
2024-04-18T16:49:47.104Z,7.64
2024-04-18T16:54:50.725Z,7.54
2024-04-18T17:00:14.288Z,7.52
2024-04-18T17:05:17.654Z,7.43
2024-04-18T17:10:21.163Z,7.34
2024-04-18T17:15:42.829Z,7.28
2024-04-18T17:20:46.182Z,7.24
2024-04-18T17:25:52.477Z,7.19
2024-04-18T17:30:56.050Z,7.16
2024-04-18T17:35:59.349Z,7.12
2024-04-18T17:41:20.753Z,7.03
2024-04-18T17:46:24.659Z,6.97
2024-04-18T17:51:27.770Z,6.92
2024-04-18T17:56:30.711Z,6.91
2024-04-18T18:01:34.464Z,6.87
2024-04-18T18:06:48.171Z,6.81
2024-04-18T18:11:51.181Z,6.74
2024-04-18T18:16:54.479Z,6.87
2024-04-18T18:22:01.151Z,6.93
2024-04-18T18:27:04.949Z,6.97
2024-04-18T18:32:15.116Z,6.97
2024-04-18T18:37:19.397Z,6.98
2024-04-18T18:42:42.927Z,7.10
2024-04-18T18:47:46.302Z,7.14
2024-04-18T18:52:56.860Z,7.21
2024-04-18T18:58:10.532Z,7.17
2024-04-18T19:03:14.834Z,7.11
2024-04-18T19:08:18.077Z,7.18
2024-04-18T19:13:30.300Z,7.17
2024-04-18T19:18:34.613Z,7.24
2024-04-18T19:23:38.635Z,7.23
2024-04-18T19:28:42.427Z,7.27
2024-04-18T19:33:46.334Z,7.30
2024-04-18T19:38:50.516Z,7.28
2024-04-18T19:44:02.804Z,7.30
2024-04-18T19:49:07.435Z,7.31
2024-04-18T19:54:29.052Z,7.27
2024-04-18T19:59:32.765Z,7.21
2024-04-18T20:04:36.218Z,7.19
2024-04-18T20:09:39.220Z,7.21
2024-04-18T20:14:42.847Z,7.20
2024-04-18T20:19:46.066Z,7.20
2024-04-18T20:24:49.215Z,7.18
2024-04-18T20:30:11.198Z,7.12
2024-04-18T20:35:34.143Z,7.15
2024-04-18T20:40:37.734Z,7.11
2024-04-18T20:45:41.408Z,7.14
2024-04-18T20:50:44.346Z,7.13
2024-04-18T20:55:47.305Z,7.15
2024-04-18T21:00:50.925Z,7.13
2024-04-18T21:05:54.065Z,7.14
2024-04-18T21:10:57.144Z,7.16
2024-04-18T21:16:01.197Z,7.15
2024-04-18T21:21:05.049Z,7.17
2024-04-18T21:26:08.634Z,7.16
2024-04-18T21:31:11.872Z,7.20
2024-04-18T21:36:14.857Z,7.22
2024-04-18T21:41:18.480Z,7.25
2024-04-18T21:46:22.300Z,7.28
2024-04-18T21:51:25.251Z,7.31
2024-04-18T21:56:28.379Z,7.36
2024-04-18T22:01:31.872Z,7.40
2024-04-18T22:06:35.052Z,7.45
2024-04-18T22:11:38.892Z,7.54
2024-04-18T22:16:43.747Z,7.58
2024-04-18T22:21:47.436Z,7.60
2024-04-18T22:26:50.442Z,7.70
2024-04-18T22:31:54.098Z,7.84
2024-04-18T22:36:57.218Z,8.05
2024-04-18T22:42:00.203Z,8.26
2024-04-18T22:47:03.421Z,8.35
2024-04-18T22:52:06.620Z,8.44
2024-04-18T22:57:09.635Z,8.60
2024-04-18T23:02:14.856Z,8.61
2024-04-18T23:07:18.370Z,8.69
2024-04-18T23:12:21.996Z,8.68
2024-04-18T23:17:25.725Z,8.58
2024-04-18T23:22:29.317Z,8.59
2024-04-18T23:27:32.423Z,8.60
2024-04-18T23:32:37.127Z,8.69
2024-04-18T23:37:40.540Z,8.79
2024-04-18T23:42:44.153Z,8.83
2024-04-18T23:47:48.011Z,8.85
2024-04-18T23:52:50.953Z,8.86
2024-04-18T23:57:53.926Z,8.78
